sensor_id;sensor_type;location;lat;lon;timestamp;temperature;humidity
43541;DHT22;29549;40.386;-3.710;2022-09-13T00:07:58;26.40;38.30
43541;DHT22;29549;40.386;-3.710;2022-09-13T00:18:00;26.30;38.50
43541;DHT22;29549;40.386;-3.710;2022-09-13T00:28:02;26.30;37.70
43541;DHT22;29549;40.386;-3.710;2022-09-13T00:38:04;26.40;36.30
43541;DHT22;29549;40.386;-3.710;2022-09-13T00:48:07;26.50;36.30
43541;DHT22;29549;40.386;-3.710;2022-09-13T00:58:14;26.40;36.70
43541;DHT22;29549;40.386;-3.710;2022-09-13T01:08:17;26.30;37.10
43541;DHT22;29549;40.386;-3.710;2022-09-13T01:18:25;26.10;37.60
43541;DHT22;29549;40.386;-3.710;2022-09-13T01:39:13;25.90;39.00
43541;DHT22;29549;40.386;-3.710;2022-09-13T01:49:35;25.50;44.50
43541;DHT22;29549;40.386;-3.710;2022-09-13T02:10:03;23.90;52.40
43541;DHT22;29549;40.386;-3.710;2022-09-13T02:20:22;23.80;53.30
43541;DHT22;29549;40.386;-3.710;2022-09-13T02:30:27;23.20;58.70
43541;DHT22;29549;40.386;-3.710;2022-09-13T02:40:38;22.70;62.30
43541;DHT22;29549;40.386;-3.710;2022-09-13T03:01:17;22.20;64.90
43541;DHT22;29549;40.386;-3.710;2022-09-13T03:52:39;22.00;69.40
43541;DHT22;29549;40.386;-3.710;2022-09-13T04:02:40;21.90;70.30
43541;DHT22;29549;40.386;-3.710;2022-09-13T04:12:42;21.70;71.70
43541;DHT22;29549;40.386;-3.710;2022-09-13T04:22:51;21.60;72.20
43541;DHT22;29549;40.386;-3.710;2022-09-13T04:32:52;21.50;72.20
43541;DHT22;29549;40.386;-3.710;2022-09-13T04:43:00;21.40;72.70
43541;DHT22;29549;40.386;-3.710;2022-09-13T04:53:02;21.30;72.50
43541;DHT22;29549;40.386;-3.710;2022-09-13T05:03:03;21.20;71.90
43541;DHT22;29549;40.386;-3.710;2022-09-13T05:13:05;21.20;73.00
43541;DHT22;29549;40.386;-3.710;2022-09-13T05:23:07;21.10;71.60
43541;DHT22;29549;40.386;-3.710;2022-09-13T05:33:09;21.10;73.30
43541;DHT22;29549;40.386;-3.710;2022-09-13T05:43:11;21.20;73.70
43541;DHT22;29549;40.386;-3.710;2022-09-13T05:53:12;21.00;73.70
43541;DHT22;29549;40.386;-3.710;2022-09-13T06:03:14;21.00;72.10
43541;DHT22;29549;40.386;-3.710;2022-09-13T06:13:16;20.50;76.60
43541;DHT22;29549;40.386;-3.710;2022-09-13T06:23:17;20.70;76.30
43541;DHT22;29549;40.386;-3.710;2022-09-13T06:33:19;20.70;76.00
43541;DHT22;29549;40.386;-3.710;2022-09-13T06:43:21;20.90;73.50
43541;DHT22;29549;40.386;-3.710;2022-09-13T06:53:22;21.20;74.30
43541;DHT22;29549;40.386;-3.710;2022-09-13T07:03:26;21.20;73.70
43541;DHT22;29549;40.386;-3.710;2022-09-13T07:13:27;21.30;73.50
43541;DHT22;29549;40.386;-3.710;2022-09-13T07:23:31;21.30;73.70
43541;DHT22;29549;40.386;-3.710;2022-09-13T07:33:33;21.30;72.10
43541;DHT22;29549;40.386;-3.710;2022-09-13T07:43:35;21.40;72.20
43541;DHT22;29549;40.386;-3.710;2022-09-13T07:53:39;21.30;71.90
43541;DHT22;29549;40.386;-3.710;2022-09-13T08:03:40;21.30;73.30
43541;DHT22;29549;40.386;-3.710;2022-09-13T08:13:42;21.40;72.90
43541;DHT22;29549;40.386;-3.710;2022-09-13T08:23:44;21.40;74.40
43541;DHT22;29549;40.386;-3.710;2022-09-13T08:33:47;21.50;73.70
43541;DHT22;29549;40.386;-3.710;2022-09-13T08:44:41;21.70;72.60
43541;DHT22;29549;40.386;-3.710;2022-09-13T08:54:15;22.10;70.80
43541;DHT22;29549;40.386;-3.710;2022-09-13T09:14:32;23.60;64.20
43541;DHT22;29549;40.386;-3.710;2022-09-13T09:24:38;23.80;64.30
43541;DHT22;29549;40.386;-3.710;2022-09-13T09:45:23;23.80;64.70
43541;DHT22;29549;40.386;-3.710;2022-09-13T09:55:28;23.60;65.80
43541;DHT22;29549;40.386;-3.710;2022-09-13T10:05:31;23.70;66.10
43541;DHT22;29549;40.386;-3.710;2022-09-13T10:15:33;23.60;66.90
43541;DHT22;29549;40.386;-3.710;2022-09-13T10:25:37;23.80;65.70
43541;DHT22;29549;40.386;-3.710;2022-09-13T10:35:39;24.00;64.40
43541;DHT22;29549;40.386;-3.710;2022-09-13T10:45:41;24.30;63.00
43541;DHT22;29549;40.386;-3.710;2022-09-13T10:55:52;24.40;62.20
43541;DHT22;29549;40.386;-3.710;2022-09-13T11:16:30;24.60;62.00
43541;DHT22;29549;40.386;-3.710;2022-09-13T11:27:19;24.60;61.70
43541;DHT22;29549;40.386;-3.710;2022-09-13T11:37:22;25.10;59.90
43541;DHT22;29549;40.386;-3.710;2022-09-13T11:57:52;25.30;57.80
43541;DHT22;29549;40.386;-3.710;2022-09-13T12:39:04;25.60;53.10
43541;DHT22;29549;40.386;-3.710;2022-09-13T13:10:30;26.10;53.00
43541;DHT22;29549;40.386;-3.710;2022-09-13T13:30:53;26.50;50.50
43541;DHT22;29549;40.386;-3.710;2022-09-13T13:41:06;26.40;49.30
43541;DHT22;29549;40.386;-3.710;2022-09-13T13:51:13;26.20;50.90
43541;DHT22;29549;40.386;-3.710;2022-09-13T14:01:21;25.60;53.10
43541;DHT22;29549;40.386;-3.710;2022-09-13T14:21:40;25.50;54.00
43541;DHT22;29549;40.386;-3.710;2022-09-13T14:31:44;25.70;52.10
43541;DHT22;29549;40.386;-3.710;2022-09-13T14:41:46;26.10;48.90
43541;DHT22;29549;40.386;-3.710;2022-09-13T14:51:54;26.20;49.40
43541;DHT22;29549;40.386;-3.710;2022-09-13T15:01:57;25.80;52.80
43541;DHT22;29549;40.386;-3.710;2022-09-13T15:11:59;26.10;52.70
43541;DHT22;29549;40.386;-3.710;2022-09-13T15:22:04;26.00;53.10
43541;DHT22;29549;40.386;-3.710;2022-09-13T15:32:23;26.10;53.00
43541;DHT22;29549;40.386;-3.710;2022-09-13T15:42:25;26.10;52.70
43541;DHT22;29549;40.386;-3.710;2022-09-13T15:52:26;25.90;53.30
43541;DHT22;29549;40.386;-3.710;2022-09-13T16:02:31;26.00;52.90
43541;DHT22;29549;40.386;-3.710;2022-09-13T16:12:32;26.30;51.90
43541;DHT22;29549;40.386;-3.710;2022-09-13T16:22:34;26.40;51.50
43541;DHT22;29549;40.386;-3.710;2022-09-13T16:32:36;26.70;50.20
43541;DHT22;29549;40.386;-3.710;2022-09-13T16:42:38;26.40;48.10
43541;DHT22;29549;40.386;-3.710;2022-09-13T16:52:40;26.30;45.30
43541;DHT22;29549;40.386;-3.710;2022-09-13T17:02:41;26.40;44.60
43541;DHT22;29549;40.386;-3.710;2022-09-13T17:12:43;26.00;45.90
43541;DHT22;29549;40.386;-3.710;2022-09-13T17:22:45;26.00;46.10
43541;DHT22;29549;40.386;-3.710;2022-09-13T17:32:47;25.90;46.10
43541;DHT22;29549;40.386;-3.710;2022-09-13T17:42:48;25.90;46.10
43541;DHT22;29549;40.386;-3.710;2022-09-13T17:52:51;25.70;46.30
43541;DHT22;29549;40.386;-3.710;2022-09-13T18:02:53;25.60;47.80
43541;DHT22;29549;40.386;-3.710;2022-09-13T18:12:54;25.50;48.30
43541;DHT22;29549;40.386;-3.710;2022-09-13T18:22:56;25.40;48.40
43541;DHT22;29549;40.386;-3.710;2022-09-13T18:32:58;25.30;48.30
43541;DHT22;29549;40.386;-3.710;2022-09-13T18:42:59;25.10;48.40
43541;DHT22;29549;40.386;-3.710;2022-09-13T18:53:01;25.10;48.80
43541;DHT22;29549;40.386;-3.710;2022-09-13T19:03:03;25.00;49.40
43541;DHT22;29549;40.386;-3.710;2022-09-13T19:13:04;24.90;49.70
43541;DHT22;29549;40.386;-3.710;2022-09-13T19:23:06;23.80;55.20
43541;DHT22;29549;40.386;-3.710;2022-09-13T19:33:08;23.40;57.30
43541;DHT22;29549;40.386;-3.710;2022-09-13T19:43:11;23.50;54.20
43541;DHT22;29549;40.386;-3.710;2022-09-13T19:53:12;23.10;51.40
43541;DHT22;29549;40.386;-3.710;2022-09-13T20:03:14;23.10;51.60
43541;DHT22;29549;40.386;-3.710;2022-09-13T20:13:16;23.10;51.80
43541;DHT22;29549;40.386;-3.710;2022-09-13T20:23:18;23.00;52.30
43541;DHT22;29549;40.386;-3.710;2022-09-13T20:33:20;23.00;52.40
43541;DHT22;29549;40.386;-3.710;2022-09-13T20:43:22;22.80;52.70
43541;DHT22;29549;40.386;-3.710;2022-09-13T20:53:24;22.80;52.60
43541;DHT22;29549;40.386;-3.710;2022-09-13T21:03:25;22.80;52.80
43541;DHT22;29549;40.386;-3.710;2022-09-13T21:13:38;22.90;52.50
43541;DHT22;29549;40.386;-3.710;2022-09-13T21:23:41;22.90;52.20
43541;DHT22;29549;40.386;-3.710;2022-09-13T21:33:43;22.90;52.20
43541;DHT22;29549;40.386;-3.710;2022-09-13T21:43:44;22.90;52.80
43541;DHT22;29549;40.386;-3.710;2022-09-13T21:53:48;22.90;53.20
43541;DHT22;29549;40.386;-3.710;2022-09-13T22:03:51;22.50;56.70
43541;DHT22;29549;40.386;-3.710;2022-09-13T22:13:54;22.20;58.90
43541;DHT22;29549;40.386;-3.710;2022-09-13T22:23:56;22.00;60.30
43541;DHT22;29549;40.386;-3.710;2022-09-13T22:34:00;21.70;61.40
43541;DHT22;29549;40.386;-3.710;2022-09-13T22:44:03;21.70;61.50
43541;DHT22;29549;40.386;-3.710;2022-09-13T22:54:06;21.60;62.20
43541;DHT22;29549;40.386;-3.710;2022-09-13T23:04:08;21.60;62.80
43541;DHT22;29549;40.386;-3.710;2022-09-13T23:14:12;21.40;63.90
43541;DHT22;29549;40.386;-3.710;2022-09-13T23:24:16;21.30;64.00
43541;DHT22;29549;40.386;-3.710;2022-09-13T23:34:18;21.30;64.00
43541;DHT22;29549;40.386;-3.710;2022-09-13T23:44:20;21.20;64.00
43541;DHT22;29549;40.386;-3.710;2022-09-13T23:54:22;21.20;62.60
